sensor_id;sensor_type;location;lat;lon;timestamp;temperature;humidity
74617;DHT22;63123;50.906;4.198;2023-12-20T00:01:00;16.80;56.90
74617;DHT22;63123;50.906;4.198;2023-12-20T00:03:26;16.80;57.00
74617;DHT22;63123;50.906;4.198;2023-12-20T00:05:52;16.80;56.80
74617;DHT22;63123;50.906;4.198;2023-12-20T00:08:17;16.80;56.80
74617;DHT22;63123;50.906;4.198;2023-12-20T00:10:43;16.80;57.00
74617;DHT22;63123;50.906;4.198;2023-12-20T00:13:09;16.80;56.80
74617;DHT22;63123;50.906;4.198;2023-12-20T00:15:34;16.80;56.60
74617;DHT22;63123;50.906;4.198;2023-12-20T00:18:00;16.80;56.60
74617;DHT22;63123;50.906;4.198;2023-12-20T00:20:26;16.80;56.70
74617;DHT22;63123;50.906;4.198;2023-12-20T00:22:52;16.80;57.30
74617;DHT22;63123;50.906;4.198;2023-12-20T00:25:17;16.80;56.70
74617;DHT22;63123;50.906;4.198;2023-12-20T00:27:43;16.80;56.90
74617;DHT22;63123;50.906;4.198;2023-12-20T00:30:09;16.80;56.90
74617;DHT22;63123;50.906;4.198;2023-12-20T00:32:35;16.80;56.80
74617;DHT22;63123;50.906;4.198;2023-12-20T00:35:01;16.80;56.90
74617;DHT22;63123;50.906;4.198;2023-12-20T00:37:26;16.80;56.70
74617;DHT22;63123;50.906;4.198;2023-12-20T00:39:52;16.80;56.70
74617;DHT22;63123;50.906;4.198;2023-12-20T00:42:17;16.80;56.50
74617;DHT22;63123;50.906;4.198;2023-12-20T00:44:43;16.80;56.70
74617;DHT22;63123;50.906;4.198;2023-12-20T00:47:08;16.80;56.70
74617;DHT22;63123;50.906;4.198;2023-12-20T00:49:34;16.80;56.60
74617;DHT22;63123;50.906;4.198;2023-12-20T00:51:59;16.80;56.60
74617;DHT22;63123;50.906;4.198;2023-12-20T00:54:25;16.80;56.90
74617;DHT22;63123;50.906;4.198;2023-12-20T00:56:51;16.80;56.50
74617;DHT22;63123;50.906;4.198;2023-12-20T00:59:16;16.80;56.60
74617;DHT22;63123;50.906;4.198;2023-12-20T01:01:42;16.80;56.30
74617;DHT22;63123;50.906;4.198;2023-12-20T01:04:08;16.80;56.60
74617;DHT22;63123;50.906;4.198;2023-12-20T01:06:33;16.80;56.60
74617;DHT22;63123;50.906;4.198;2023-12-20T01:08:59;16.80;56.50
74617;DHT22;63123;50.906;4.198;2023-12-20T01:11:24;16.80;56.40
74617;DHT22;63123;50.906;4.198;2023-12-20T01:13:50;16.80;56.20
74617;DHT22;63123;50.906;4.198;2023-12-20T01:16:15;16.80;56.40
74617;DHT22;63123;50.906;4.198;2023-12-20T01:18:41;16.80;56.30
74617;DHT22;63123;50.906;4.198;2023-12-20T01:21:06;16.80;56.30
74617;DHT22;63123;50.906;4.198;2023-12-20T01:23:32;16.80;56.30
74617;DHT22;63123;50.906;4.198;2023-12-20T01:25:58;16.80;56.40
74617;DHT22;63123;50.906;4.198;2023-12-20T01:28:25;16.80;56.30
74617;DHT22;63123;50.906;4.198;2023-12-20T01:30:50;16.80;56.30
74617;DHT22;63123;50.906;4.198;2023-12-20T01:33:16;16.80;56.30
74617;DHT22;63123;50.906;4.198;2023-12-20T01:35:41;16.80;56.60
74617;DHT22;63123;50.906;4.198;2023-12-20T01:38:07;16.80;56.20
74617;DHT22;63123;50.906;4.198;2023-12-20T01:40:32;16.80;56.30
74617;DHT22;63123;50.906;4.198;2023-12-20T01:43:16;16.80;56.40
74617;DHT22;63123;50.906;4.198;2023-12-20T01:45:41;16.80;56.90
74617;DHT22;63123;50.906;4.198;2023-12-20T01:48:07;16.80;56.00
74617;DHT22;63123;50.906;4.198;2023-12-20T01:50:33;16.80;56.20
74617;DHT22;63123;50.906;4.198;2023-12-20T01:53:00;16.80;56.10
74617;DHT22;63123;50.906;4.198;2023-12-20T01:55:33;16.80;56.10
74617;DHT22;63123;50.906;4.198;2023-12-20T01:58:00;16.80;56.50
74617;DHT22;63123;50.906;4.198;2023-12-20T02:00:26;16.80;56.40
74617;DHT22;63123;50.906;4.198;2023-12-20T02:02:53;16.80;56.30
74617;DHT22;63123;50.906;4.198;2023-12-20T02:05:18;16.80;56.30
74617;DHT22;63123;50.906;4.198;2023-12-20T02:07:44;16.80;56.30
74617;DHT22;63123;50.906;4.198;2023-12-20T02:10:09;16.80;56.40
74617;DHT22;63123;50.906;4.198;2023-12-20T02:12:35;16.80;56.30
74617;DHT22;63123;50.906;4.198;2023-12-20T02:15:01;16.80;56.00
74617;DHT22;63123;50.906;4.198;2023-12-20T02:17:27;16.80;56.20
74617;DHT22;63123;50.906;4.198;2023-12-20T02:19:52;16.80;56.20
74617;DHT22;63123;50.906;4.198;2023-12-20T02:22:18;16.80;56.10
74617;DHT22;63123;50.906;4.198;2023-12-20T02:24:44;16.80;56.10
74617;DHT22;63123;50.906;4.198;2023-12-20T02:27:09;16.80;56.30
74617;DHT22;63123;50.906;4.198;2023-12-20T02:29:35;16.80;56.00
74617;DHT22;63123;50.906;4.198;2023-12-20T02:32:01;16.80;56.30
74617;DHT22;63123;50.906;4.198;2023-12-20T02:34:26;16.80;56.00
74617;DHT22;63123;50.906;4.198;2023-12-20T02:36:52;16.80;56.10
74617;DHT22;63123;50.906;4.198;2023-12-20T02:39:18;16.80;56.00
74617;DHT22;63123;50.906;4.198;2023-12-20T02:41:44;16.80;56.00
74617;DHT22;63123;50.906;4.198;2023-12-20T02:44:10;16.80;56.10
74617;DHT22;63123;50.906;4.198;2023-12-20T02:46:35;16.80;56.00
74617;DHT22;63123;50.906;4.198;2023-12-20T02:49:01;16.80;56.30
74617;DHT22;63123;50.906;4.198;2023-12-20T02:51:26;16.80;56.40
74617;DHT22;63123;50.906;4.198;2023-12-20T02:53:52;16.80;56.00
74617;DHT22;63123;50.906;4.198;2023-12-20T02:56:17;16.80;55.80
74617;DHT22;63123;50.906;4.198;2023-12-20T02:58:43;16.80;56.10
74617;DHT22;63123;50.906;4.198;2023-12-20T03:01:08;16.80;56.10
74617;DHT22;63123;50.906;4.198;2023-12-20T03:03:34;16.80;56.10
74617;DHT22;63123;50.906;4.198;2023-12-20T03:05:59;16.70;56.20
74617;DHT22;63123;50.906;4.198;2023-12-20T03:08:25;16.80;56.20
74617;DHT22;63123;50.906;4.198;2023-12-20T03:10:50;16.80;56.30
74617;DHT22;63123;50.906;4.198;2023-12-20T03:13:16;16.80;56.20
74617;DHT22;63123;50.906;4.198;2023-12-20T03:15:41;16.80;56.10
74617;DHT22;63123;50.906;4.198;2023-12-20T03:18:07;16.80;56.30
74617;DHT22;63123;50.906;4.198;2023-12-20T03:20:32;16.80;56.60
74617;DHT22;63123;50.906;4.198;2023-12-20T03:23:01;16.80;56.30
74617;DHT22;63123;50.906;4.198;2023-12-20T03:25:26;16.80;56.30
74617;DHT22;63123;50.906;4.198;2023-12-20T03:27:52;16.80;56.40
74617;DHT22;63123;50.906;4.198;2023-12-20T03:30:18;16.80;56.20
74617;DHT22;63123;50.906;4.198;2023-12-20T03:32:43;16.70;56.00
74617;DHT22;63123;50.906;4.198;2023-12-20T03:35:09;16.80;56.30
74617;DHT22;63123;50.906;4.198;2023-12-20T03:37:34;16.80;56.20
74617;DHT22;63123;50.906;4.198;2023-12-20T03:40:00;16.80;56.40
74617;DHT22;63123;50.906;4.198;2023-12-20T03:42:26;16.80;56.20
74617;DHT22;63123;50.906;4.198;2023-12-20T03:44:51;16.80;56.30
74617;DHT22;63123;50.906;4.198;2023-12-20T03:47:17;16.80;56.30
74617;DHT22;63123;50.906;4.198;2023-12-20T03:49:42;16.80;56.30
74617;DHT22;63123;50.906;4.198;2023-12-20T03:52:08;16.80;56.10
74617;DHT22;63123;50.906;4.198;2023-12-20T03:54:34;16.80;56.30
74617;DHT22;63123;50.906;4.198;2023-12-20T03:57:00;16.80;56.30
74617;DHT22;63123;50.906;4.198;2023-12-20T03:59:26;16.80;56.00
74617;DHT22;63123;50.906;4.198;2023-12-20T04:01:51;16.80;56.30
74617;DHT22;63123;50.906;4.198;2023-12-20T04:04:16;16.80;56.00
74617;DHT22;63123;50.906;4.198;2023-12-20T04:06:42;16.80;56.30
74617;DHT22;63123;50.906;4.198;2023-12-20T04:09:08;16.80;56.20
74617;DHT22;63123;50.906;4.198;2023-12-20T04:11:37;16.80;56.00
74617;DHT22;63123;50.906;4.198;2023-12-20T04:14:02;16.80;56.10
74617;DHT22;63123;50.906;4.198;2023-12-20T04:16:30;16.80;56.20
74617;DHT22;63123;50.906;4.198;2023-12-20T04:18:55;16.70;56.20
74617;DHT22;63123;50.906;4.198;2023-12-20T04:21:21;16.80;56.00
74617;DHT22;63123;50.906;4.198;2023-12-20T04:23:46;16.80;55.90
74617;DHT22;63123;50.906;4.198;2023-12-20T04:26:12;16.80;56.10
74617;DHT22;63123;50.906;4.198;2023-12-20T04:28:37;16.80;56.20
74617;DHT22;63123;50.906;4.198;2023-12-20T04:31:03;16.80;56.00
74617;DHT22;63123;50.906;4.198;2023-12-20T04:33:28;16.80;56.00
74617;DHT22;63123;50.906;4.198;2023-12-20T04:35:54;16.80;56.20
74617;DHT22;63123;50.906;4.198;2023-12-20T04:38:19;16.80;56.20
74617;DHT22;63123;50.906;4.198;2023-12-20T04:40:45;16.80;56.00
74617;DHT22;63123;50.906;4.198;2023-12-20T04:43:10;16.80;56.10
74617;DHT22;63123;50.906;4.198;2023-12-20T04:45:36;16.80;56.00
74617;DHT22;63123;50.906;4.198;2023-12-20T04:48:02;16.80;55.90
74617;DHT22;63123;50.906;4.198;2023-12-20T04:50:27;16.70;55.80
74617;DHT22;63123;50.906;4.198;2023-12-20T04:52:53;16.80;55.90
74617;DHT22;63123;50.906;4.198;2023-12-20T04:55:18;16.80;56.00
74617;DHT22;63123;50.906;4.198;2023-12-20T04:57:44;16.70;55.80
74617;DHT22;63123;50.906;4.198;2023-12-20T05:00:10;16.80;55.80
74617;DHT22;63123;50.906;4.198;2023-12-20T05:02:36;16.80;56.00
74617;DHT22;63123;50.906;4.198;2023-12-20T05:05:01;16.80;56.00
74617;DHT22;63123;50.906;4.198;2023-12-20T05:07:27;16.80;56.10
74617;DHT22;63123;50.906;4.198;2023-12-20T05:09:52;16.80;55.90
74617;DHT22;63123;50.906;4.198;2023-12-20T05:12:18;16.80;55.90
74617;DHT22;63123;50.906;4.198;2023-12-20T05:14:44;16.80;55.80
74617;DHT22;63123;50.906;4.198;2023-12-20T05:17:09;16.80;56.30
74617;DHT22;63123;50.906;4.198;2023-12-20T05:19:35;16.80;56.00
74617;DHT22;63123;50.906;4.198;2023-12-20T05:22:01;16.80;56.40
74617;DHT22;63123;50.906;4.198;2023-12-20T05:24:27;16.80;56.30
74617;DHT22;63123;50.906;4.198;2023-12-20T05:26:52;16.80;56.20
74617;DHT22;63123;50.906;4.198;2023-12-20T05:29:18;16.80;56.60
74617;DHT22;63123;50.906;4.198;2023-12-20T05:31:43;16.80;56.30
74617;DHT22;63123;50.906;4.198;2023-12-20T05:34:09;16.80;56.40
74617;DHT22;63123;50.906;4.198;2023-12-20T05:36:36;16.80;56.30
74617;DHT22;63123;50.906;4.198;2023-12-20T05:39:01;16.80;56.40
74617;DHT22;63123;50.906;4.198;2023-12-20T05:41:28;16.80;56.40
74617;DHT22;63123;50.906;4.198;2023-12-20T05:43:54;16.80;56.20
74617;DHT22;63123;50.906;4.198;2023-12-20T05:46:19;16.80;56.50
74617;DHT22;63123;50.906;4.198;2023-12-20T05:48:46;16.80;56.30
74617;DHT22;63123;50.906;4.198;2023-12-20T05:51:12;16.80;56.30
74617;DHT22;63123;50.906;4.198;2023-12-20T05:53:38;16.80;56.70
74617;DHT22;63123;50.906;4.198;2023-12-20T05:56:03;16.80;56.20
74617;DHT22;63123;50.906;4.198;2023-12-20T05:58:29;16.80;56.20
74617;DHT22;63123;50.906;4.198;2023-12-20T06:00:54;16.80;55.90
74617;DHT22;63123;50.906;4.198;2023-12-20T06:03:20;16.80;55.90
74617;DHT22;63123;50.906;4.198;2023-12-20T06:05:45;16.80;56.20
74617;DHT22;63123;50.906;4.198;2023-12-20T06:08:11;16.80;56.10
74617;DHT22;63123;50.906;4.198;2023-12-20T06:10:37;16.80;55.90
74617;DHT22;63123;50.906;4.198;2023-12-20T06:13:02;16.80;55.80
74617;DHT22;63123;50.906;4.198;2023-12-20T06:15:29;16.80;55.90
74617;DHT22;63123;50.906;4.198;2023-12-20T06:17:55;16.80;55.90
74617;DHT22;63123;50.906;4.198;2023-12-20T06:20:20;16.80;55.60
74617;DHT22;63123;50.906;4.198;2023-12-20T06:22:46;16.70;55.70
74617;DHT22;63123;50.906;4.198;2023-12-20T06:25:12;16.80;56.20
74617;DHT22;63123;50.906;4.198;2023-12-20T06:27:37;16.80;55.60
74617;DHT22;63123;50.906;4.198;2023-12-20T06:30:03;16.80;55.90
74617;DHT22;63123;50.906;4.198;2023-12-20T06:32:28;16.80;55.50
74617;DHT22;63123;50.906;4.198;2023-12-20T06:34:54;16.80;55.80
74617;DHT22;63123;50.906;4.198;2023-12-20T06:37:20;16.80;55.80
74617;DHT22;63123;50.906;4.198;2023-12-20T06:39:45;16.80;55.70
74617;DHT22;63123;50.906;4.198;2023-12-20T06:42:12;16.80;55.60
74617;DHT22;63123;50.906;4.198;2023-12-20T06:44:37;16.80;56.40
74617;DHT22;63123;50.906;4.198;2023-12-20T06:47:04;16.80;55.50
74617;DHT22;63123;50.906;4.198;2023-12-20T06:49:29;16.80;55.50
74617;DHT22;63123;50.906;4.198;2023-12-20T06:51:55;16.80;55.50
74617;DHT22;63123;50.906;4.198;2023-12-20T06:54:21;16.80;55.70
74617;DHT22;63123;50.906;4.198;2023-12-20T06:56:46;16.80;56.00
74617;DHT22;63123;50.906;4.198;2023-12-20T06:59:12;16.80;55.30
74617;DHT22;63123;50.906;4.198;2023-12-20T07:01:37;16.80;55.60
74617;DHT22;63123;50.906;4.198;2023-12-20T07:04:03;16.70;55.30
74617;DHT22;63123;50.906;4.198;2023-12-20T07:06:28;16.80;55.60
74617;DHT22;63123;50.906;4.198;2023-12-20T07:08:54;16.80;55.60
74617;DHT22;63123;50.906;4.198;2023-12-20T07:11:19;16.70;55.40
74617;DHT22;63123;50.906;4.198;2023-12-20T07:13:45;16.80;55.60
74617;DHT22;63123;50.906;4.198;2023-12-20T07:16:10;16.80;55.50
74617;DHT22;63123;50.906;4.198;2023-12-20T07:18:36;16.80;55.20
74617;DHT22;63123;50.906;4.198;2023-12-20T07:21:02;16.80;55.30
74617;DHT22;63123;50.906;4.198;2023-12-20T07:23:27;16.80;55.40
74617;DHT22;63123;50.906;4.198;2023-12-20T07:25:53;16.80;55.30
74617;DHT22;63123;50.906;4.198;2023-12-20T07:28:18;16.80;55.40
74617;DHT22;63123;50.906;4.198;2023-12-20T07:30:44;16.80;55.60
74617;DHT22;63123;50.906;4.198;2023-12-20T07:33:09;16.80;55.40
74617;DHT22;63123;50.906;4.198;2023-12-20T07:35:35;16.80;55.40
74617;DHT22;63123;50.906;4.198;2023-12-20T07:38:01;16.80;55.50
74617;DHT22;63123;50.906;4.198;2023-12-20T07:40:27;16.80;55.50
74617;DHT22;63123;50.906;4.198;2023-12-20T07:42:53;16.80;55.30
74617;DHT22;63123;50.906;4.198;2023-12-20T07:45:18;16.80;55.40
74617;DHT22;63123;50.906;4.198;2023-12-20T07:47:44;16.80;55.50
74617;DHT22;63123;50.906;4.198;2023-12-20T07:50:09;16.80;55.30
74617;DHT22;63123;50.906;4.198;2023-12-20T07:52:35;16.80;55.20
74617;DHT22;63123;50.906;4.198;2023-12-20T07:55:01;16.80;55.40
74617;DHT22;63123;50.906;4.198;2023-12-20T07:57:30;16.80;55.20
74617;DHT22;63123;50.906;4.198;2023-12-20T07:59:55;16.80;55.20
74617;DHT22;63123;50.906;4.198;2023-12-20T08:02:21;16.80;55.20
74617;DHT22;63123;50.906;4.198;2023-12-20T08:04:47;16.80;55.10
74617;DHT22;63123;50.906;4.198;2023-12-20T08:07:12;16.80;55.30
74617;DHT22;63123;50.906;4.198;2023-12-20T08:09:38;16.80;55.20
74617;DHT22;63123;50.906;4.198;2023-12-20T08:12:03;16.80;55.20
74617;DHT22;63123;50.906;4.198;2023-12-20T08:14:29;16.70;55.00
74617;DHT22;63123;50.906;4.198;2023-12-20T08:16:54;16.70;55.10
74617;DHT22;63123;50.906;4.198;2023-12-20T08:19:20;16.80;55.00
74617;DHT22;63123;50.906;4.198;2023-12-20T08:21:45;16.80;55.30
74617;DHT22;63123;50.906;4.198;2023-12-20T08:24:11;16.80;55.20
74617;DHT22;63123;50.906;4.198;2023-12-20T08:26:37;16.80;55.40
74617;DHT22;63123;50.906;4.198;2023-12-20T08:29:02;16.80;55.20
74617;DHT22;63123;50.906;4.198;2023-12-20T08:31:28;16.80;55.50
74617;DHT22;63123;50.906;4.198;2023-12-20T08:33:53;16.80;55.00
74617;DHT22;63123;50.906;4.198;2023-12-20T08:36:19;16.80;55.20
74617;DHT22;63123;50.906;4.198;2023-12-20T08:38:46;16.80;55.20
74617;DHT22;63123;50.906;4.198;2023-12-20T08:41:12;16.80;55.00
74617;DHT22;63123;50.906;4.198;2023-12-20T08:43:38;16.80;54.90
74617;DHT22;63123;50.906;4.198;2023-12-20T08:46:05;16.80;55.10
74617;DHT22;63123;50.906;4.198;2023-12-20T08:48:31;16.80;55.10
74617;DHT22;63123;50.906;4.198;2023-12-20T08:50:56;16.80;55.30
74617;DHT22;63123;50.906;4.198;2023-12-20T08:53:22;16.80;55.20
74617;DHT22;63123;50.906;4.198;2023-12-20T08:55:48;16.80;55.00
74617;DHT22;63123;50.906;4.198;2023-12-20T08:58:13;16.80;55.00
74617;DHT22;63123;50.906;4.198;2023-12-20T09:00:39;16.80;55.20
74617;DHT22;63123;50.906;4.198;2023-12-20T09:03:05;16.70;55.20
74617;DHT22;63123;50.906;4.198;2023-12-20T09:05:30;16.80;55.40
74617;DHT22;63123;50.906;4.198;2023-12-20T09:07:56;16.80;55.70
74617;DHT22;63123;50.906;4.198;2023-12-20T09:10:21;16.80;55.30
74617;DHT22;63123;50.906;4.198;2023-12-20T09:12:49;16.80;55.40
74617;DHT22;63123;50.906;4.198;2023-12-20T09:15:15;16.80;55.20
74617;DHT22;63123;50.906;4.198;2023-12-20T09:17:41;16.70;55.20
74617;DHT22;63123;50.906;4.198;2023-12-20T09:20:07;16.80;55.30
74617;DHT22;63123;50.906;4.198;2023-12-20T09:22:33;16.80;55.20
74617;DHT22;63123;50.906;4.198;2023-12-20T09:24:59;16.80;55.00
74617;DHT22;63123;50.906;4.198;2023-12-20T09:27:24;16.80;55.20
74617;DHT22;63123;50.906;4.198;2023-12-20T09:29:50;16.80;55.00
74617;DHT22;63123;50.906;4.198;2023-12-20T09:32:16;16.80;54.70
74617;DHT22;63123;50.906;4.198;2023-12-20T09:34:41;16.80;55.00
74617;DHT22;63123;50.906;4.198;2023-12-20T09:37:07;16.80;55.00
74617;DHT22;63123;50.906;4.198;2023-12-20T09:39:33;16.80;54.80
74617;DHT22;63123;50.906;4.198;2023-12-20T09:42:02;16.80;55.50
74617;DHT22;63123;50.906;4.198;2023-12-20T09:44:28;16.80;55.20
74617;DHT22;63123;50.906;4.198;2023-12-20T09:46:54;16.80;55.10
74617;DHT22;63123;50.906;4.198;2023-12-20T09:49:20;16.80;55.30
74617;DHT22;63123;50.906;4.198;2023-12-20T09:51:46;16.70;54.80
74617;DHT22;63123;50.906;4.198;2023-12-20T09:54:15;16.80;55.30
74617;DHT22;63123;50.906;4.198;2023-12-20T09:56:41;16.80;54.90
74617;DHT22;63123;50.906;4.198;2023-12-20T09:59:07;16.80;54.90
74617;DHT22;63123;50.906;4.198;2023-12-20T10:01:33;16.80;55.20
74617;DHT22;63123;50.906;4.198;2023-12-20T10:03:59;16.80;55.00
74617;DHT22;63123;50.906;4.198;2023-12-20T10:06:25;16.80;55.20
74617;DHT22;63123;50.906;4.198;2023-12-20T10:08:51;16.80;55.20
74617;DHT22;63123;50.906;4.198;2023-12-20T10:11:16;16.80;55.00
74617;DHT22;63123;50.906;4.198;2023-12-20T10:13:42;16.80;55.00
74617;DHT22;63123;50.906;4.198;2023-12-20T10:16:08;16.80;54.90
74617;DHT22;63123;50.906;4.198;2023-12-20T10:18:34;16.80;55.10
74617;DHT22;63123;50.906;4.198;2023-12-20T10:21:00;16.80;55.00
74617;DHT22;63123;50.906;4.198;2023-12-20T10:23:25;16.80;55.00
74617;DHT22;63123;50.906;4.198;2023-12-20T10:25:57;16.80;55.20
74617;DHT22;63123;50.906;4.198;2023-12-20T10:28:26;16.80;55.20
74617;DHT22;63123;50.906;4.198;2023-12-20T10:30:53;16.80;55.00
74617;DHT22;63123;50.906;4.198;2023-12-20T10:33:28;16.70;54.90
74617;DHT22;63123;50.906;4.198;2023-12-20T10:35:54;16.80;55.00
74617;DHT22;63123;50.906;4.198;2023-12-20T10:38:20;16.80;55.00
74617;DHT22;63123;50.906;4.198;2023-12-20T10:40:46;16.80;55.00
74617;DHT22;63123;50.906;4.198;2023-12-20T10:43:11;16.80;55.20
74617;DHT22;63123;50.906;4.198;2023-12-20T10:45:37;16.80;55.00
74617;DHT22;63123;50.906;4.198;2023-12-20T10:48:03;16.80;55.20
74617;DHT22;63123;50.906;4.198;2023-12-20T10:50:29;16.80;55.10
74617;DHT22;63123;50.906;4.198;2023-12-20T10:52:55;16.80;55.10
74617;DHT22;63123;50.906;4.198;2023-12-20T10:55:21;16.80;55.00
74617;DHT22;63123;50.906;4.198;2023-12-20T10:57:47;16.80;55.30
74617;DHT22;63123;50.906;4.198;2023-12-20T11:00:17;16.80;55.20
74617;DHT22;63123;50.906;4.198;2023-12-20T11:02:43;16.80;55.10
74617;DHT22;63123;50.906;4.198;2023-12-20T11:07:47;16.80;55.00
74617;DHT22;63123;50.906;4.198;2023-12-20T11:12:52;16.80;55.00
74617;DHT22;63123;50.906;4.198;2023-12-20T11:15:19;16.70;55.00
74617;DHT22;63123;50.906;4.198;2023-12-20T11:17:45;16.80;55.00
74617;DHT22;63123;50.906;4.198;2023-12-20T11:20:11;16.80;55.20
74617;DHT22;63123;50.906;4.198;2023-12-20T11:22:37;16.70;55.00
74617;DHT22;63123;50.906;4.198;2023-12-20T11:25:04;16.80;55.40
74617;DHT22;63123;50.906;4.198;2023-12-20T11:27:30;16.80;55.30
74617;DHT22;63123;50.906;4.198;2023-12-20T11:29:56;16.80;55.00
74617;DHT22;63123;50.906;4.198;2023-12-20T11:35:39;16.70;55.20
74617;DHT22;63123;50.906;4.198;2023-12-20T11:37:40;16.80;55.10
74617;DHT22;63123;50.906;4.198;2023-12-20T11:40:11;16.80;55.10
74617;DHT22;63123;50.906;4.198;2023-12-20T11:42:44;16.80;55.10
74617;DHT22;63123;50.906;4.198;2023-12-20T11:45:10;16.70;55.10
74617;DHT22;63123;50.906;4.198;2023-12-20T11:47:35;16.80;55.20
74617;DHT22;63123;50.906;4.198;2023-12-20T11:50:01;16.80;55.10
74617;DHT22;63123;50.906;4.198;2023-12-20T11:52:29;16.80;55.20
74617;DHT22;63123;50.906;4.198;2023-12-20T11:54:54;16.80;55.20
74617;DHT22;63123;50.906;4.198;2023-12-20T11:57:20;16.70;55.10
74617;DHT22;63123;50.906;4.198;2023-12-20T11:59:46;16.80;55.30
74617;DHT22;63123;50.906;4.198;2023-12-20T12:02:11;16.70;55.10
74617;DHT22;63123;50.906;4.198;2023-12-20T12:04:37;16.80;55.30
74617;DHT22;63123;50.906;4.198;2023-12-20T12:07:03;16.80;55.20
74617;DHT22;63123;50.906;4.198;2023-12-20T12:09:28;16.80;55.30
74617;DHT22;63123;50.906;4.198;2023-12-20T12:11:54;16.80;55.40
74617;DHT22;63123;50.906;4.198;2023-12-20T12:14:19;16.80;55.40
74617;DHT22;63123;50.906;4.198;2023-12-20T12:16:46;16.80;55.30
74617;DHT22;63123;50.906;4.198;2023-12-20T12:19:21;16.80;55.20
74617;DHT22;63123;50.906;4.198;2023-12-20T12:21:47;16.80;55.40
74617;DHT22;63123;50.906;4.198;2023-12-20T12:24:12;16.80;55.20
74617;DHT22;63123;50.906;4.198;2023-12-20T12:26:38;16.80;55.90
74617;DHT22;63123;50.906;4.198;2023-12-20T12:29:03;16.70;55.10
74617;DHT22;63123;50.906;4.198;2023-12-20T12:31:32;16.80;55.20
74617;DHT22;63123;50.906;4.198;2023-12-20T12:33:57;16.80;55.20
74617;DHT22;63123;50.906;4.198;2023-12-20T12:36:23;16.80;55.40
74617;DHT22;63123;50.906;4.198;2023-12-20T12:38:48;16.80;55.40
74617;DHT22;63123;50.906;4.198;2023-12-20T12:41:14;16.80;55.40
74617;DHT22;63123;50.906;4.198;2023-12-20T12:43:40;16.80;55.20
74617;DHT22;63123;50.906;4.198;2023-12-20T12:46:06;16.80;55.50
74617;DHT22;63123;50.906;4.198;2023-12-20T12:48:32;16.80;55.60
74617;DHT22;63123;50.906;4.198;2023-12-20T12:50:59;16.80;55.50
74617;DHT22;63123;50.906;4.198;2023-12-20T12:53:25;16.80;55.40
74617;DHT22;63123;50.906;4.198;2023-12-20T12:55:52;16.80;55.60
74617;DHT22;63123;50.906;4.198;2023-12-20T12:58:17;16.80;55.50
74617;DHT22;63123;50.906;4.198;2023-12-20T13:00:43;16.80;55.60
74617;DHT22;63123;50.906;4.198;2023-12-20T13:03:09;16.80;55.50
74617;DHT22;63123;50.906;4.198;2023-12-20T13:05:34;16.80;55.60
74617;DHT22;63123;50.906;4.198;2023-12-20T13:08:00;16.80;55.50
74617;DHT22;63123;50.906;4.198;2023-12-20T13:10:26;16.80;55.70
74617;DHT22;63123;50.906;4.198;2023-12-20T13:12:51;16.80;55.60
74617;DHT22;63123;50.906;4.198;2023-12-20T13:15:17;16.80;55.60
74617;DHT22;63123;50.906;4.198;2023-12-20T13:17:42;16.80;55.60
74617;DHT22;63123;50.906;4.198;2023-12-20T13:20:08;16.80;55.60
74617;DHT22;63123;50.906;4.198;2023-12-20T13:22:33;16.80;55.70
74617;DHT22;63123;50.906;4.198;2023-12-20T13:24:59;16.80;55.70
74617;DHT22;63123;50.906;4.198;2023-12-20T13:27:24;16.70;55.60
74617;DHT22;63123;50.906;4.198;2023-12-20T13:29:50;16.80;55.70
74617;DHT22;63123;50.906;4.198;2023-12-20T13:32:15;16.80;55.70
74617;DHT22;63123;50.906;4.198;2023-12-20T13:34:41;16.80;55.70
74617;DHT22;63123;50.906;4.198;2023-12-20T13:37:06;16.80;55.70
74617;DHT22;63123;50.906;4.198;2023-12-20T13:39:32;16.80;55.70
74617;DHT22;63123;50.906;4.198;2023-12-20T13:41:58;16.80;55.70
74617;DHT22;63123;50.906;4.198;2023-12-20T13:44:23;16.80;56.00
74617;DHT22;63123;50.906;4.198;2023-12-20T13:46:49;16.80;55.60
74617;DHT22;63123;50.906;4.198;2023-12-20T13:49:15;16.80;55.60
74617;DHT22;63123;50.906;4.198;2023-12-20T13:51:41;16.80;55.70
74617;DHT22;63123;50.906;4.198;2023-12-20T13:54:06;16.70;55.70
74617;DHT22;63123;50.906;4.198;2023-12-20T13:56:32;16.80;55.50
74617;DHT22;63123;50.906;4.198;2023-12-20T13:58:58;16.80;55.70
74617;DHT22;63123;50.906;4.198;2023-12-20T14:01:24;16.80;55.70
74617;DHT22;63123;50.906;4.198;2023-12-20T14:03:51;16.80;55.70
74617;DHT22;63123;50.906;4.198;2023-12-20T14:06:17;16.80;55.80
74617;DHT22;63123;50.906;4.198;2023-12-20T14:08:43;16.80;55.90
74617;DHT22;63123;50.906;4.198;2023-12-20T14:11:08;16.70;56.00
74617;DHT22;63123;50.906;4.198;2023-12-20T14:13:34;16.80;55.60
74617;DHT22;63123;50.906;4.198;2023-12-20T14:16:00;16.70;55.70
74617;DHT22;63123;50.906;4.198;2023-12-20T14:18:27;16.70;55.90
74617;DHT22;63123;50.906;4.198;2023-12-20T14:20:53;16.80;55.90
74617;DHT22;63123;50.906;4.198;2023-12-20T14:23:19;16.80;55.80
74617;DHT22;63123;50.906;4.198;2023-12-20T14:25:44;16.80;55.80
74617;DHT22;63123;50.906;4.198;2023-12-20T14:28:10;16.80;55.80
74617;DHT22;63123;50.906;4.198;2023-12-20T14:30:37;16.80;55.80
74617;DHT22;63123;50.906;4.198;2023-12-20T14:33:03;16.70;55.90
74617;DHT22;63123;50.906;4.198;2023-12-20T14:35:29;16.80;56.00
74617;DHT22;63123;50.906;4.198;2023-12-20T14:37:55;16.80;56.00
74617;DHT22;63123;50.906;4.198;2023-12-20T14:40:20;16.80;55.90
74617;DHT22;63123;50.906;4.198;2023-12-20T14:42:46;16.80;55.90
74617;DHT22;63123;50.906;4.198;2023-12-20T14:45:11;16.80;55.80
74617;DHT22;63123;50.906;4.198;2023-12-20T14:47:38;16.80;55.80
74617;DHT22;63123;50.906;4.198;2023-12-20T14:50:04;16.70;55.90
74617;DHT22;63123;50.906;4.198;2023-12-20T14:52:30;16.80;55.80
74617;DHT22;63123;50.906;4.198;2023-12-20T14:54:56;16.70;55.90
74617;DHT22;63123;50.906;4.198;2023-12-20T14:57:21;16.80;55.90
74617;DHT22;63123;50.906;4.198;2023-12-20T14:59:46;16.70;55.80
74617;DHT22;63123;50.906;4.198;2023-12-20T15:02:12;16.80;56.00
74617;DHT22;63123;50.906;4.198;2023-12-20T15:04:37;16.80;55.90
74617;DHT22;63123;50.906;4.198;2023-12-20T15:07:03;16.80;55.90
74617;DHT22;63123;50.906;4.198;2023-12-20T15:09:31;16.80;55.90
74617;DHT22;63123;50.906;4.198;2023-12-20T15:11:57;16.80;56.00
74617;DHT22;63123;50.906;4.198;2023-12-20T15:14:22;16.80;56.20
74617;DHT22;63123;50.906;4.198;2023-12-20T15:16:48;16.80;56.10
74617;DHT22;63123;50.906;4.198;2023-12-20T15:19:13;16.80;55.90
74617;DHT22;63123;50.906;4.198;2023-12-20T15:21:39;16.70;55.80
74617;DHT22;63123;50.906;4.198;2023-12-20T15:24:08;16.80;56.10
74617;DHT22;63123;50.906;4.198;2023-12-20T15:26:40;16.80;56.00
74617;DHT22;63123;50.906;4.198;2023-12-20T15:29:06;16.70;55.90